sensor_id;sensor_type;location;lat;lon;timestamp;pressure;altitude;pressure_sealevel;temperature;humidity
22025;BME280;11176;51.448;6.650;2023-04-25T00:00:52;41000.59;;;-141.29;96.55
22025;BME280;11176;51.448;6.650;2023-04-25T00:03:18;40998.63;;;-141.29;96.53
22025;BME280;11176;51.448;6.650;2023-04-25T00:05:45;40996.63;;;-141.29;96.07
22025;BME280;11176;51.448;6.650;2023-04-25T00:08:12;41014.56;;;-141.29;96.47
22025;BME280;11176;51.448;6.650;2023-04-25T00:10:39;40976.66;;;-141.29;96.80
22025;BME280;11176;51.448;6.650;2023-04-25T00:13:05;40986.63;;;-141.29;96.98
22025;BME280;11176;51.448;6.650;2023-04-25T00:15:32;41036.53;;;-141.29;97.72
22025;BME280;11176;51.448;6.650;2023-04-25T00:17:58;41024.56;;;-141.29;97.34
22025;BME280;11176;51.448;6.650;2023-04-25T00:20:25;40998.63;;;-141.29;96.92
22025;BME280;11176;51.448;6.650;2023-04-25T00:22:51;41024.56;;;-141.29;96.80
22025;BME280;11176;51.448;6.650;2023-04-25T00:25:19;41032.53;;;-141.29;97.03
22025;BME280;11176;51.448;6.650;2023-04-25T00:27:46;41012.59;;;-141.29;97.32
22025;BME280;11176;51.448;6.650;2023-04-25T00:30:13;41016.56;;;-141.29;97.34
22025;BME280;11176;51.448;6.650;2023-04-25T00:32:40;41042.53;;;-141.29;97.75
22025;BME280;11176;51.448;6.650;2023-04-25T00:35:07;41032.53;;;-141.29;98.28
22025;BME280;11176;51.448;6.650;2023-04-25T00:37:33;41024.56;;;-141.29;97.48
22025;BME280;11176;51.448;6.650;2023-04-25T00:40:00;41034.53;;;-141.29;97.30
22025;BME280;11176;51.448;6.650;2023-04-25T00:42:26;41048.50;;;-141.29;97.32
22025;BME280;11176;51.448;6.650;2023-04-25T00:44:53;41038.53;;;-141.29;97.49
22025;BME280;11176;51.448;6.650;2023-04-25T00:47:20;41038.53;;;-141.29;97.59
22025;BME280;11176;51.448;6.650;2023-04-25T00:49:46;41024.56;;;-141.29;97.47
22025;BME280;11176;51.448;6.650;2023-04-25T00:52:13;41056.50;;;-141.29;97.73
22025;BME280;11176;51.448;6.650;2023-04-25T00:54:39;41064.47;;;-141.29;97.97
22025;BME280;11176;51.448;6.650;2023-04-25T00:57:06;41064.47;;;-141.29;98.09
22025;BME280;11176;51.448;6.650;2023-04-25T00:59:33;41084.44;;;-141.29;97.93
22025;BME280;11176;51.448;6.650;2023-04-25T01:02:00;41064.47;;;-141.29;97.69
22025;BME280;11176;51.448;6.650;2023-04-25T01:04:27;41072.47;;;-141.29;97.97
22025;BME280;11176;51.448;6.650;2023-04-25T01:06:55;41078.44;;;-141.29;98.26
22025;BME280;11176;51.448;6.650;2023-04-25T01:09:22;41104.38;;;-141.29;98.40
22025;BME280;11176;51.448;6.650;2023-04-25T01:11:49;41118.38;;;-141.29;98.18
22025;BME280;11176;51.448;6.650;2023-04-25T01:14:16;41108.38;;;-141.29;97.78
22025;BME280;11176;51.448;6.650;2023-04-25T01:16:42;41070.47;;;-141.29;97.87
22025;BME280;11176;51.448;6.650;2023-04-25T01:19:10;41088.44;;;-141.29;97.56
22025;BME280;11176;51.448;6.650;2023-04-25T01:21:39;41080.44;;;-141.29;97.76
22025;BME280;11176;51.448;6.650;2023-04-25T01:24:06;41116.38;;;-141.29;97.80
22025;BME280;11176;51.448;6.650;2023-04-25T01:26:33;41104.38;;;-141.29;98.50
22025;BME280;11176;51.448;6.650;2023-04-25T01:29:01;41108.38;;;-141.29;98.22
22025;BME280;11176;51.448;6.650;2023-04-25T01:31:28;41100.41;;;-141.29;97.98
22025;BME280;11176;51.448;6.650;2023-04-25T01:33:55;41120.34;;;-141.29;97.83
22025;BME280;11176;51.448;6.650;2023-04-25T01:36:21;41100.41;;;-141.29;97.78
22025;BME280;11176;51.448;6.650;2023-04-25T01:38:48;41104.38;;;-141.29;97.72
22025;BME280;11176;51.448;6.650;2023-04-25T01:41:16;41108.38;;;-141.29;97.97
22025;BME280;11176;51.448;6.650;2023-04-25T01:43:44;41116.38;;;-141.29;97.97
22025;BME280;11176;51.448;6.650;2023-04-25T01:46:12;41140.31;;;-141.29;97.94
22025;BME280;11176;51.448;6.650;2023-04-25T01:48:38;41120.34;;;-141.29;98.39
22025;BME280;11176;51.448;6.650;2023-04-25T01:51:06;41136.31;;;-141.29;98.24
22025;BME280;11176;51.448;6.650;2023-04-25T01:53:33;41126.34;;;-141.29;98.55
22025;BME280;11176;51.448;6.650;2023-04-25T01:56:01;41126.34;;;-141.29;98.24
22025;BME280;11176;51.448;6.650;2023-04-25T01:58:32;41136.31;;;-141.29;98.66
22025;BME280;11176;51.448;6.650;2023-04-25T02:01:01;41136.31;;;-141.29;98.75
22025;BME280;11176;51.448;6.650;2023-04-25T02:03:35;41148.31;;;-141.29;98.68
22025;BME280;11176;51.448;6.650;2023-04-25T02:06:05;41136.31;;;-141.29;98.69
22025;BME280;11176;51.448;6.650;2023-04-25T02:08:35;41144.31;;;-141.29;98.71
22025;BME280;11176;51.448;6.650;2023-04-25T02:11:03;41120.34;;;-141.29;99.10
22025;BME280;11176;51.448;6.650;2023-04-25T02:13:36;41128.34;;;-141.29;99.42
22025;BME280;11176;51.448;6.650;2023-04-25T02:16:14;41144.31;;;-141.29;99.65
22025;BME280;11176;51.448;6.650;2023-04-25T02:18:41;41150.28;;;-141.29;99.71
22025;BME280;11176;51.448;6.650;2023-04-25T02:21:07;41188.22;;;-141.29;99.61
22025;BME280;11176;51.448;6.650;2023-04-25T02:23:34;41178.25;;;-141.29;99.52
22025;BME280;11176;51.448;6.650;2023-04-25T02:26:01;41168.25;;;-141.29;99.64
22025;BME280;11176;51.448;6.650;2023-04-25T02:28:29;41160.28;;;-141.29;99.61
22025;BME280;11176;51.448;6.650;2023-04-25T02:30:55;41150.28;;;-141.29;99.67
22025;BME280;11176;51.448;6.650;2023-04-25T02:33:23;41156.28;;;-141.29;100.00
22025;BME280;11176;51.448;6.650;2023-04-25T02:35:49;41172.25;;;-141.29;100.00
22025;BME280;11176;51.448;6.650;2023-04-25T02:38:16;41182.22;;;-141.29;100.00
22025;BME280;11176;51.448;6.650;2023-04-25T02:40:42;41152.28;;;-141.29;100.00
22025;BME280;11176;51.448;6.650;2023-04-25T02:43:09;41196.19;;;-141.29;100.00
22025;BME280;11176;51.448;6.650;2023-04-25T02:45:36;41192.22;;;-141.29;100.00
22025;BME280;11176;51.448;6.650;2023-04-25T02:48:03;41174.25;;;-141.29;100.00
22025;BME280;11176;51.448;6.650;2023-04-25T02:50:31;41176.25;;;-141.29;100.00
22025;BME280;11176;51.448;6.650;2023-04-25T02:52:58;41200.19;;;-141.29;100.00
22025;BME280;11176;51.448;6.650;2023-04-25T02:55:30;41188.22;;;-141.29;100.00
22025;BME280;11176;51.448;6.650;2023-04-25T02:57:59;41180.22;;;-141.29;100.00
22025;BME280;11176;51.448;6.650;2023-04-25T03:00:46;41198.19;;;-141.29;100.00
22025;BME280;11176;51.448;6.650;2023-04-25T03:03:14;41208.19;;;-141.29;100.00
22025;BME280;11176;51.448;6.650;2023-04-25T03:05:44;41200.19;;;-141.29;100.00
22025;BME280;11176;51.448;6.650;2023-04-25T03:08:13;41188.22;;;-141.29;100.00
22025;BME280;11176;51.448;6.650;2023-04-25T03:10:39;41192.22;;;-141.29;100.00
22025;BME280;11176;51.448;6.650;2023-04-25T03:13:08;41196.19;;;-141.29;100.00
22025;BME280;11176;51.448;6.650;2023-04-25T03:15:35;41208.19;;;-141.29;100.00
22025;BME280;11176;51.448;6.650;2023-04-25T03:18:02;41218.16;;;-141.29;100.00
22025;BME280;11176;51.448;6.650;2023-04-25T03:20:29;41200.19;;;-141.29;100.00
22025;BME280;11176;51.448;6.650;2023-04-25T03:22:56;41212.16;;;-141.29;100.00
22025;BME280;11176;51.448;6.650;2023-04-25T03:25:23;41204.19;;;-141.29;100.00
22025;BME280;11176;51.448;6.650;2023-04-25T03:27:49;41208.19;;;-141.29;100.00
22025;BME280;11176;51.448;6.650;2023-04-25T03:30:16;41204.19;;;-141.29;100.00
22025;BME280;11176;51.448;6.650;2023-04-25T03:32:43;41212.16;;;-141.29;100.00
22025;BME280;11176;51.448;6.650;2023-04-25T03:35:14;41228.13;;;-141.29;100.00
22025;BME280;11176;51.448;6.650;2023-04-25T03:37:41;41238.13;;;-141.29;100.00
22025;BME280;11176;51.448;6.650;2023-04-25T03:40:15;41224.16;;;-141.29;100.00
22025;BME280;11176;51.448;6.650;2023-04-25T03:43:11;41230.13;;;-141.29;100.00
22025;BME280;11176;51.448;6.650;2023-04-25T03:45:42;41224.16;;;-141.29;100.00
22025;BME280;11176;51.448;6.650;2023-04-25T03:48:09;41252.09;;;-141.29;100.00
22025;BME280;11176;51.448;6.650;2023-04-25T03:50:35;41226.16;;;-141.29;100.00
22025;BME280;11176;51.448;6.650;2023-04-25T03:53:02;41240.13;;;-141.29;100.00
22025;BME280;11176;51.448;6.650;2023-04-25T03:55:38;41230.13;;;-141.29;100.00
22025;BME280;11176;51.448;6.650;2023-04-25T03:58:08;41208.19;;;-141.29;100.00
22025;BME280;11176;51.448;6.650;2023-04-25T04:00:36;41252.09;;;-141.29;100.00
22025;BME280;11176;51.448;6.650;2023-04-25T04:03:03;41232.13;;;-141.29;100.00
22025;BME280;11176;51.448;6.650;2023-04-25T04:05:30;41218.16;;;-141.29;100.00
22025;BME280;11176;51.448;6.650;2023-04-25T04:07:57;41230.13;;;-141.29;100.00
22025;BME280;11176;51.448;6.650;2023-04-25T04:10:24;41224.16;;;-141.29;100.00
22025;BME280;11176;51.448;6.650;2023-04-25T04:12:54;41210.19;;;-141.29;100.00
22025;BME280;11176;51.448;6.650;2023-04-25T04:15:20;41208.19;;;-141.29;100.00
22025;BME280;11176;51.448;6.650;2023-04-25T04:17:48;41192.22;;;-141.29;99.87
22025;BME280;11176;51.448;6.650;2023-04-25T04:20:16;41208.19;;;-141.29;100.00
22025;BME280;11176;51.448;6.650;2023-04-25T04:22:43;41224.16;;;-141.29;100.00
22025;BME280;11176;51.448;6.650;2023-04-25T04:25:12;41212.16;;;-141.29;100.00
22025;BME280;11176;51.448;6.650;2023-04-25T04:28:08;41208.19;;;-141.29;99.61
22025;BME280;11176;51.448;6.650;2023-04-25T04:30:49;41210.19;;;-141.29;99.16
22025;BME280;11176;51.448;6.650;2023-04-25T04:33:17;41188.22;;;-141.29;99.42
22025;BME280;11176;51.448;6.650;2023-04-25T04:35:50;41214.16;;;-141.29;99.98
22025;BME280;11176;51.448;6.650;2023-04-25T04:38:18;41182.22;;;-141.29;100.00
22025;BME280;11176;51.448;6.650;2023-04-25T04:40:46;41200.19;;;-141.29;100.00
22025;BME280;11176;51.448;6.650;2023-04-25T04:43:22;41206.19;;;-141.29;100.00
22025;BME280;11176;51.448;6.650;2023-04-25T04:46:07;41152.28;;;-141.29;100.00
22025;BME280;11176;51.448;6.650;2023-04-25T04:48:52;41188.22;;;-141.29;100.00
22025;BME280;11176;51.448;6.650;2023-04-25T04:51:46;41180.22;;;-141.29;100.00
22025;BME280;11176;51.448;6.650;2023-04-25T04:54:36;41188.22;;;-141.29;100.00
22025;BME280;11176;51.448;6.650;2023-04-25T04:57:32;41176.25;;;-141.29;100.00
22025;BME280;11176;51.448;6.650;2023-04-25T05:00:18;41184.22;;;-141.29;100.00
22025;BME280;11176;51.448;6.650;2023-04-25T05:02:54;41206.19;;;-141.29;100.00
22025;BME280;11176;51.448;6.650;2023-04-25T05:05:39;41176.25;;;-141.29;100.00
22025;BME280;11176;51.448;6.650;2023-04-25T05:08:34;41188.22;;;-141.29;100.00
22025;BME280;11176;51.448;6.650;2023-04-25T05:11:21;41174.25;;;-141.29;100.00
22025;BME280;11176;51.448;6.650;2023-04-25T05:13:56;41156.28;;;-141.29;100.00
22025;BME280;11176;51.448;6.650;2023-04-25T05:16:42;41184.22;;;-141.29;100.00
22025;BME280;11176;51.448;6.650;2023-04-25T05:19:27;41168.25;;;-141.29;100.00
22025;BME280;11176;51.448;6.650;2023-04-25T05:22:11;41196.19;;;-141.29;100.00
22025;BME280;11176;51.448;6.650;2023-04-25T05:24:56;41196.19;;;-141.29;100.00
22025;BME280;11176;51.448;6.650;2023-04-25T05:27:43;41180.22;;;-141.29;100.00
22025;BME280;11176;51.448;6.650;2023-04-25T05:30:27;41212.16;;;-141.29;100.00
22025;BME280;11176;51.448;6.650;2023-04-25T05:32:58;41230.13;;;-141.29;100.00
22025;BME280;11176;51.448;6.650;2023-04-25T05:35:26;41208.19;;;-141.29;100.00
22025;BME280;11176;51.448;6.650;2023-04-25T05:37:52;41206.19;;;-141.29;99.82
22025;BME280;11176;51.448;6.650;2023-04-25T05:40:29;41208.19;;;-141.29;99.76
22025;BME280;11176;51.448;6.650;2023-04-25T05:43:10;41196.19;;;-141.29;99.02
22025;BME280;11176;51.448;6.650;2023-04-25T05:45:53;41200.19;;;-141.29;98.22
22025;BME280;11176;51.448;6.650;2023-04-25T05:48:31;41200.19;;;-141.29;97.68
22025;BME280;11176;51.448;6.650;2023-04-25T05:51:09;41172.25;;;-141.29;97.38
22025;BME280;11176;51.448;6.650;2023-04-25T05:53:54;41190.22;;;-141.29;97.05
22025;BME280;11176;51.448;6.650;2023-04-25T05:56:21;41176.25;;;-141.29;96.92
22025;BME280;11176;51.448;6.650;2023-04-25T05:58:51;41180.22;;;-141.29;96.24
22025;BME280;11176;51.448;6.650;2023-04-25T06:01:17;41180.22;;;-141.29;96.21
22025;BME280;11176;51.448;6.650;2023-04-25T06:03:44;41180.22;;;-141.29;96.06
22025;BME280;11176;51.448;6.650;2023-04-25T06:06:11;41180.22;;;-141.29;95.50
22025;BME280;11176;51.448;6.650;2023-04-25T06:08:38;41182.22;;;-141.29;95.28
22025;BME280;11176;51.448;6.650;2023-04-25T06:11:05;41176.25;;;-141.29;94.63
22025;BME280;11176;51.448;6.650;2023-04-25T06:13:32;41176.25;;;-141.29;95.42
22025;BME280;11176;51.448;6.650;2023-04-25T06:15:59;41180.22;;;-141.29;95.31
22025;BME280;11176;51.448;6.650;2023-04-25T06:18:26;41172.25;;;-141.29;94.54
22025;BME280;11176;51.448;6.650;2023-04-25T06:20:53;41160.28;;;-141.29;94.50
22025;BME280;11176;51.448;6.650;2023-04-25T06:23:19;41156.28;;;-141.29;93.73
22025;BME280;11176;51.448;6.650;2023-04-25T06:26:00;41136.31;;;-141.29;93.90
22025;BME280;11176;51.448;6.650;2023-04-25T06:28:27;41144.31;;;-141.29;93.12
22025;BME280;11176;51.448;6.650;2023-04-25T06:30:54;41148.31;;;-141.29;93.39
22025;BME280;11176;51.448;6.650;2023-04-25T06:33:21;41120.34;;;-141.29;93.19
22025;BME280;11176;51.448;6.650;2023-04-25T06:35:48;41144.31;;;-141.29;92.96
22025;BME280;11176;51.448;6.650;2023-04-25T06:38:18;41140.31;;;-141.29;93.45
22025;BME280;11176;51.448;6.650;2023-04-25T06:40:49;41136.31;;;-141.29;93.71
22025;BME280;11176;51.448;6.650;2023-04-25T06:43:16;41156.28;;;-141.29;93.08
22025;BME280;11176;51.448;6.650;2023-04-25T06:46:04;41150.28;;;-141.29;92.90
22025;BME280;11176;51.448;6.650;2023-04-25T06:48:34;41124.34;;;-141.29;92.16
22025;BME280;11176;51.448;6.650;2023-04-25T06:51:01;41136.31;;;-141.29;91.60
22025;BME280;11176;51.448;6.650;2023-04-25T06:53:27;41128.34;;;-141.29;90.79
22025;BME280;11176;51.448;6.650;2023-04-25T06:55:58;41132.34;;;-141.29;90.51
22025;BME280;11176;51.448;6.650;2023-04-25T06:58:29;41104.38;;;-141.29;91.05
22025;BME280;11176;51.448;6.650;2023-04-25T07:01:15;41104.38;;;-141.29;90.31
22025;BME280;11176;51.448;6.650;2023-04-25T07:03:42;41114.38;;;-141.29;90.51
22025;BME280;11176;51.448;6.650;2023-04-25T07:06:15;41140.31;;;-141.29;90.95
22025;BME280;11176;51.448;6.650;2023-04-25T07:08:41;41114.38;;;-141.29;90.55
22025;BME280;11176;51.448;6.650;2023-04-25T07:11:08;41136.31;;;-141.29;91.45
22025;BME280;11176;51.448;6.650;2023-04-25T07:13:35;41132.34;;;-141.29;91.76
22025;BME280;11176;51.448;6.650;2023-04-25T07:16:03;41118.38;;;-141.29;89.43
22025;BME280;11176;51.448;6.650;2023-04-25T07:18:32;41108.38;;;-141.29;88.20
22025;BME280;11176;51.448;6.650;2023-04-25T07:20:59;41112.38;;;-141.29;87.70
22025;BME280;11176;51.448;6.650;2023-04-25T07:23:26;41084.44;;;-141.29;87.67
22025;BME280;11176;51.448;6.650;2023-04-25T07:25:53;41092.41;;;-141.29;87.13
22025;BME280;11176;51.448;6.650;2023-04-25T07:28:23;41070.47;;;-141.29;84.71
22025;BME280;11176;51.448;6.650;2023-04-25T07:30:49;41040.53;;;-141.29;83.34
22025;BME280;11176;51.448;6.650;2023-04-25T07:33:16;41012.59;;;-141.29;83.93
22025;BME280;11176;51.448;6.650;2023-04-25T07:35:43;41048.50;;;-141.29;85.07
22025;BME280;11176;51.448;6.650;2023-04-25T07:38:12;41042.53;;;-141.29;84.85
22025;BME280;11176;51.448;6.650;2023-04-25T07:40:39;41024.56;;;-141.29;84.46
22025;BME280;11176;51.448;6.650;2023-04-25T07:43:08;41030.53;;;-141.29;83.51
22025;BME280;11176;51.448;6.650;2023-04-25T07:45:46;41044.50;;;-141.29;84.36
22025;BME280;11176;51.448;6.650;2023-04-25T07:48:18;41026.56;;;-141.29;82.74
22025;BME280;11176;51.448;6.650;2023-04-25T07:50:46;40986.63;;;-141.29;81.15
22025;BME280;11176;51.448;6.650;2023-04-25T07:53:14;40966.69;;;-141.29;80.06
22025;BME280;11176;51.448;6.650;2023-04-25T07:55:48;40974.66;;;-141.29;79.90
22025;BME280;11176;51.448;6.650;2023-04-25T07:58:17;40976.66;;;-141.29;79.86
22025;BME280;11176;51.448;6.650;2023-04-25T08:00:50;40968.69;;;-141.29;79.38
22025;BME280;11176;51.448;6.650;2023-04-25T08:03:28;40940.72;;;-141.29;79.97
22025;BME280;11176;51.448;6.650;2023-04-25T08:05:57;40972.66;;;-141.29;80.59
22025;BME280;11176;51.448;6.650;2023-04-25T08:08:27;40958.69;;;-141.29;79.54
22025;BME280;11176;51.448;6.650;2023-04-25T08:10:54;40964.69;;;-141.29;79.71
22025;BME280;11176;51.448;6.650;2023-04-25T08:13:20;40968.69;;;-141.29;80.79
22025;BME280;11176;51.448;6.650;2023-04-25T08:15:47;40996.63;;;-141.29;79.89
22025;BME280;11176;51.448;6.650;2023-04-25T08:18:14;40974.66;;;-141.29;79.11
22025;BME280;11176;51.448;6.650;2023-04-25T08:20:44;40960.69;;;-141.29;78.21
22025;BME280;11176;51.448;6.650;2023-04-25T08:23:12;40972.66;;;-141.29;77.93
22025;BME280;11176;51.448;6.650;2023-04-25T08:25:49;40948.72;;;-141.29;78.42
22025;BME280;11176;51.448;6.650;2023-04-25T08:28:18;40970.66;;;-141.29;79.16
22025;BME280;11176;51.448;6.650;2023-04-25T08:30:45;41008.59;;;-141.29;79.09
22025;BME280;11176;51.448;6.650;2023-04-25T08:33:14;40992.63;;;-141.29;78.01
22025;BME280;11176;51.448;6.650;2023-04-25T08:35:59;40996.63;;;-141.29;77.13
22025;BME280;11176;51.448;6.650;2023-04-25T08:38:27;40954.72;;;-141.29;76.33
22025;BME280;11176;51.448;6.650;2023-04-25T08:40:54;40960.69;;;-141.29;75.49
22025;BME280;11176;51.448;6.650;2023-04-25T08:43:23;40932.75;;;-141.29;73.41
22025;BME280;11176;51.448;6.650;2023-04-25T08:45:52;40900.81;;;-141.29;70.78
22025;BME280;11176;51.448;6.650;2023-04-25T08:48:33;40872.88;;;-141.29;69.43
22025;BME280;11176;51.448;6.650;2023-04-25T08:51:06;40852.91;;;-141.29;68.62
22025;BME280;11176;51.448;6.650;2023-04-25T08:53:38;40826.97;;;-141.29;68.82
22025;BME280;11176;51.448;6.650;2023-04-25T08:56:10;40840.94;;;-141.29;70.08
22025;BME280;11176;51.448;6.650;2023-04-25T08:58:39;40828.97;;;-141.29;68.11
22025;BME280;11176;51.448;6.650;2023-04-25T09:01:06;40819.00;;;-141.29;67.46
22025;BME280;11176;51.448;6.650;2023-04-25T09:03:41;40761.13;;;-141.29;65.34
22025;BME280;11176;51.448;6.650;2023-04-25T09:06:10;40773.09;;;-141.29;65.65
22025;BME280;11176;51.448;6.650;2023-04-25T09:08:37;40749.16;;;-141.29;64.33
22025;BME280;11176;51.448;6.650;2023-04-25T09:11:07;40765.13;;;-141.29;66.06
22025;BME280;11176;51.448;6.650;2023-04-25T09:13:33;40753.13;;;-141.29;65.36
22025;BME280;11176;51.448;6.650;2023-04-25T09:16:17;40781.06;;;-141.29;65.51
22025;BME280;11176;51.448;6.650;2023-04-25T09:19:33;40757.13;;;-141.29;65.89
22025;BME280;11176;51.448;6.650;2023-04-25T09:22:17;40725.19;;;-141.29;63.46
22025;BME280;11176;51.448;6.650;2023-04-25T09:24:45;40769.09;;;-141.29;65.73
22025;BME280;11176;51.448;6.650;2023-04-25T09:27:20;40739.16;;;-141.29;63.10
22025;BME280;11176;51.448;6.650;2023-04-25T09:29:58;40737.16;;;-141.29;62.92
22025;BME280;11176;51.448;6.650;2023-04-25T09:32:31;40687.28;;;-141.29;61.02
22025;BME280;11176;51.448;6.650;2023-04-25T09:34:59;40657.34;;;-141.29;59.53
22025;BME280;11176;51.448;6.650;2023-04-25T09:37:29;40605.47;;;-141.29;57.12
22025;BME280;11176;51.448;6.650;2023-04-25T09:40:17;40601.47;;;-141.29;57.08
22025;BME280;11176;51.448;6.650;2023-04-25T09:42:59;40537.63;;;-141.29;55.54
22025;BME280;11176;51.448;6.650;2023-04-25T09:45:29;40517.66;;;-141.29;56.00
22025;BME280;11176;51.448;6.650;2023-04-25T09:47:56;40553.56;;;-141.29;57.12
22025;BME280;11176;51.448;6.650;2023-04-25T09:50:29;40489.72;;;-141.29;55.23
22025;BME280;11176;51.448;6.650;2023-04-25T09:53:04;40465.78;;;-141.29;54.46
22025;BME280;11176;51.448;6.650;2023-04-25T09:55:49;40503.69;;;-141.29;56.36
22025;BME280;11176;51.448;6.650;2023-04-25T09:58:16;40461.78;;;-141.29;55.64
22025;BME280;11176;51.448;6.650;2023-04-25T10:00:43;40465.78;;;-141.29;56.42
22025;BME280;11176;51.448;6.650;2023-04-25T10:03:24;40483.75;;;-141.29;55.92
22025;BME280;11176;51.448;6.650;2023-04-25T10:06:19;40483.75;;;-141.29;56.49
22025;BME280;11176;51.448;6.650;2023-04-25T10:08:51;40453.81;;;-141.29;55.28
22025;BME280;11176;51.448;6.650;2023-04-25T10:11:18;40421.88;;;-141.29;54.10
22025;BME280;11176;51.448;6.650;2023-04-25T10:13:45;40356.03;;;-141.29;52.79
22025;BME280;11176;51.448;6.650;2023-04-25T10:16:12;40415.88;;;-141.29;55.19
22025;BME280;11176;51.448;6.650;2023-04-25T10:18:39;40405.91;;;-141.29;54.57
22025;BME280;11176;51.448;6.650;2023-04-25T10:21:06;40366.00;;;-141.29;54.39
22025;BME280;11176;51.448;6.650;2023-04-25T10:23:33;40385.97;;;-141.29;54.50
22025;BME280;11176;51.448;6.650;2023-04-25T10:26:01;40354.03;;;-141.29;51.94
22025;BME280;11176;51.448;6.650;2023-04-25T10:28:28;40330.09;;;-141.29;51.32
22025;BME280;11176;51.448;6.650;2023-04-25T10:31:01;40286.19;;;-141.29;49.35
22025;BME280;11176;51.448;6.650;2023-04-25T10:33:36;40250.28;;;-141.29;48.86
22025;BME280;11176;51.448;6.650;2023-04-25T10:36:11;40250.28;;;-141.29;49.79
22025;BME280;11176;51.448;6.650;2023-04-25T10:38:37;40234.31;;;-141.29;48.18
22025;BME280;11176;51.448;6.650;2023-04-25T10:41:09;40278.22;;;-141.29;50.55
22025;BME280;11176;51.448;6.650;2023-04-25T10:43:43;40206.38;;;-141.29;47.71
22025;BME280;11176;51.448;6.650;2023-04-25T10:46:27;40186.41;;;-141.29;47.63
22025;BME280;11176;51.448;6.650;2023-04-25T10:49:01;40158.50;;;-141.29;47.80
22025;BME280;11176;51.448;6.650;2023-04-25T10:51:32;40238.31;;;-141.29;54.12
22025;BME280;11176;51.448;6.650;2023-04-25T10:54:19;40302.16;;;-141.29;57.10
22025;BME280;11176;51.448;6.650;2023-04-25T10:56:48;40340.06;;;-141.29;60.67
22025;BME280;11176;51.448;6.650;2023-04-25T10:59:16;40344.06;;;-141.29;62.46
22025;BME280;11176;51.448;6.650;2023-04-25T11:01:56;40370.00;;;-141.29;64.02
22025;BME280;11176;51.448;6.650;2023-04-25T11:04:24;40377.97;;;-141.29;66.67
22025;BME280;11176;51.448;6.650;2023-04-25T11:07:50;40387.94;;;-141.29;67.41
22025;BME280;11176;51.448;6.650;2023-04-25T11:10:31;40469.78;;;-141.29;71.33
22025;BME280;11176;51.448;6.650;2023-04-25T11:12:58;40591.50;;;-141.29;75.30
22025;BME280;11176;51.448;6.650;2023-04-25T11:15:25;40583.50;;;-141.29;74.33
22025;BME280;11176;51.448;6.650;2023-04-25T11:17:52;40573.53;;;-141.29;73.84
22025;BME280;11176;51.448;6.650;2023-04-25T11:20:19;40565.56;;;-141.29;71.06
22025;BME280;11176;51.448;6.650;2023-04-25T11:22:46;40543.59;;;-141.29;69.86
22025;BME280;11176;51.448;6.650;2023-04-25T11:25:15;40513.66;;;-141.29;70.59
22025;BME280;11176;51.448;6.650;2023-04-25T11:27:52;40495.72;;;-141.29;69.21
22025;BME280;11176;51.448;6.650;2023-04-25T11:30:20;40503.69;;;-141.29;69.36
22025;BME280;11176;51.448;6.650;2023-04-25T11:32:47;40501.69;;;-141.29;69.73
22025;BME280;11176;51.448;6.650;2023-04-25T11:35:14;40477.75;;;-141.29;70.01
22025;BME280;11176;51.448;6.650;2023-04-25T11:37:42;40469.78;;;-141.29;68.97
22025;BME280;11176;51.448;6.650;2023-04-25T11:40:10;40445.81;;;-141.29;68.98
22025;BME280;11176;51.448;6.650;2023-04-25T11:42:39;40485.72;;;-141.29;71.76
22025;BME280;11176;51.448;6.650;2023-04-25T11:45:06;40541.59;;;-141.29;74.55
22025;BME280;11176;51.448;6.650;2023-04-25T11:47:34;40485.72;;;-141.29;73.02
22025;BME280;11176;51.448;6.650;2023-04-25T11:50:04;40483.75;;;-141.29;72.74
22025;BME280;11176;51.448;6.650;2023-04-25T11:52:55;40553.56;;;-141.29;76.42
22025;BME280;11176;51.448;6.650;2023-04-25T11:55:23;40563.56;;;-141.29;79.05
22025;BME280;11176;51.448;6.650;2023-04-25T11:57:49;40545.59;;;-141.29;78.72
22025;BME280;11176;51.448;6.650;2023-04-25T12:00:18;40581.50;;;-141.29;81.15
22025;BME280;11176;51.448;6.650;2023-04-25T12:02:47;40569.53;;;-141.29;81.44
22025;BME280;11176;51.448;6.650;2023-04-25T12:05:17;40605.47;;;-141.29;81.55
22025;BME280;11176;51.448;6.650;2023-04-25T12:07:47;40595.47;;;-141.29;80.96
22025;BME280;11176;51.448;6.650;2023-04-25T12:10:16;40609.44;;;-141.29;80.63
22025;BME280;11176;51.448;6.650;2023-04-25T12:12:45;40661.34;;;-141.29;81.46
22025;BME280;11176;51.448;6.650;2023-04-25T12:15:24;40703.25;;;-141.29;81.27
22025;BME280;11176;51.448;6.650;2023-04-25T12:17:53;40695.25;;;-141.29;79.05
22025;BME280;11176;51.448;6.650;2023-04-25T12:20:24;40647.38;;;-141.29;74.70
22025;BME280;11176;51.448;6.650;2023-04-25T12:22:52;40573.53;;;-141.29;68.49
22025;BME280;11176;51.448;6.650;2023-04-25T12:25:39;40599.47;;;-141.29;66.38
22025;BME280;11176;51.448;6.650;2023-04-25T12:28:18;40661.34;;;-141.29;68.95
22025;BME280;11176;51.448;6.650;2023-04-25T12:30:53;40601.47;;;-141.29;62.36
22025;BME280;11176;51.448;6.650;2023-04-25T12:33:21;40661.34;;;-141.29;62.44
22025;BME280;11176;51.448;6.650;2023-04-25T12:35:48;40872.88;;;-141.29;72.29
22025;BME280;11176;51.448;6.650;2023-04-25T12:38:27;40713.22;;;-141.29;56.03
22025;BME280;11176;51.448;6.650;2023-04-25T12:40:55;40721.22;;;-141.29;54.98
22025;BME280;11176;51.448;6.650;2023-04-25T12:43:22;40721.22;;;-141.29;55.19
22025;BME280;11176;51.448;6.650;2023-04-25T12:45:53;40781.06;;;-141.29;54.76
22025;BME280;11176;51.448;6.650;2023-04-25T12:48:20;40689.28;;;-141.29;48.14
22025;BME280;11176;51.448;6.650;2023-04-25T12:50:48;40677.31;;;-141.29;46.64
22025;BME280;11176;51.448;6.650;2023-04-25T12:53:16;40753.13;;;-141.29;48.79
22025;BME280;11176;51.448;6.650;2023-04-25T12:55:43;40745.16;;;-141.29;46.54
22025;BME280;11176;51.448;6.650;2023-04-25T12:58:16;40641.38;;;-141.29;43.25